Time;durP1;ratioP1;P1;durP2;ratioP2;P2;SDS_P1;SDS_P2;PMS_P1;PMS_P2;Temp;Humidity;BMP_temperature;BMP_pressure;BME280_temperature;BME280_humidity;BME280_pressure;Samples;Min_cycle;Max_cycle;Signal;HPM_P1;HPM_P2
2021/01/12 00:00:42;;;;;;;26.50;12.60;;;1.10;61.40;;;;;;5073719;28;20028;-72
2021/01/12 00:03:08;;;;;;;26.10;12.80;;;1.00;60.90;;;;;;5073641;28;20523;-73
2021/01/12 00:05:34;;;;;;;23.52;11.45;;;1.00;60.80;;;;;;5056063;28;20036;-72
2021/01/12 00:08:00;;;;;;;24.35;13.32;;;1.00;60.80;;;;;;5056259;28;20043;-73
2021/01/12 00:10:26;;;;;;;25.27;12.20;;;1.10;60.90;;;;;;5072483;28;20055;-70
2021/01/12 00:12:53;;;;;;;25.45;12.15;;;1.10;60.80;;;;;;5073590;28;20496;-73
2021/01/12 00:15:19;;;;;;;27.20;12.50;;;1.00;60.70;;;;;;5056031;28;20392;-74
2021/01/12 00:17:45;;;;;;;21.67;11.40;;;1.10;60.70;;;;;;5073399;28;20404;-72
2021/01/12 00:20:12;;;;;;;24.15;12.10;;;1.10;60.80;;;;;;5073379;28;20047;-73
2021/01/12 00:22:38;;;;;;;24.13;12.95;;;1.10;60.70;;;;;;5038982;28;20068;-75
2021/01/12 00:25:06;;;;;;;26.25;12.63;;;1.00;60.80;;;;;;5073398;28;20121;-72
2021/01/12 00:27:32;;;;;;;24.63;11.88;;;1.00;60.70;;;;;;5055163;28;20496;-72
2021/01/12 00:29:59;;;;;;;25.80;12.65;;;1.00;60.50;;;;;;5073083;28;20036;-71
2021/01/12 00:32:28;;;;;;;28.60;13.45;;;1.00;60.60;;;;;;5055206;28;20396;-72
2021/01/12 00:34:55;;;;;;;25.48;12.95;;;1.10;60.50;;;;;;5055221;28;20048;-71
2021/01/12 00:37:24;;;;;;;24.77;11.25;;;1.00;60.50;;;;;;5055283;28;20407;-72
2021/01/12 00:39:51;;;;;;;23.38;10.93;;;1.00;60.40;;;;;;5055181;28;20071;-71
2021/01/12 00:42:17;;;;;;;24.08;11.98;;;1.00;60.50;;;;;;5072852;28;20048;-71
2021/01/12 00:44:43;;;;;;;25.02;12.02;;;1.00;60.60;;;;;;5055051;28;20068;-72
2021/01/12 00:47:10;;;;;;;22.13;11.98;;;1.00;60.60;;;;;;5073044;28;20075;-72
2021/01/12 00:49:36;;;;;;;24.27;11.65;;;1.00;60.50;;;;;;5073293;28;20036;-75
2021/01/12 00:52:07;;;;;;;25.45;12.30;;;1.00;60.50;;;;;;5072914;28;20470;-73
2021/01/12 00:54:33;;;;;;;24.00;12.75;;;1.00;60.50;;;;;;5073131;28;20484;-71
2021/01/12 00:56:59;;;;;;;23.48;11.52;;;1.00;60.60;;;;;;5072902;28;20111;-71
2021/01/12 00:59:24;;;;;;;24.05;11.93;;;1.00;60.60;;;;;;5072716;28;20120;-72
2021/01/12 01:01:51;;;;;;;21.95;11.82;;;1.00;60.40;;;;;;5054757;28;20044;-73
2021/01/12 01:04:17;;;;;;;23.70;11.30;;;1.00;60.40;;;;;;5054918;28;20044;-71
2021/01/12 01:06:45;;;;;;;24.17;11.88;;;0.90;60.30;;;;;;5072777;28;20493;-71
2021/01/12 01:09:12;;;;;;;23.70;11.18;;;0.90;60.50;;;;;;5054843;28;20032;-72
2021/01/12 01:11:48;;;;;;;24.20;12.15;;;0.90;60.40;;;;;;5038246;28;20031;-71
2021/01/12 01:14:15;;;;;;;25.83;12.75;;;0.90;60.50;;;;;;5072629;28;20051;-73
2021/01/12 01:16:42;;;;;;;25.20;12.55;;;0.90;60.50;;;;;;5038146;28;20059;-72
2021/01/12 01:19:09;;;;;;;22.20;11.30;;;0.90;60.50;;;;;;5072460;28;20032;-70
2021/01/12 01:21:35;;;;;;;26.38;12.43;;;0.90;60.60;;;;;;5074697;28;20033;-71
2021/01/12 01:24:01;;;;;;;26.02;12.77;;;0.90;60.70;;;;;;5058900;28;20189;-72
2021/01/12 01:26:27;;;;;;;25.95;12.63;;;0.90;60.70;;;;;;5076480;28;20381;-72
2021/01/12 01:28:54;;;;;;;23.35;11.93;;;0.90;60.70;;;;;;5076445;28;20037;-71
2021/01/12 01:31:20;;;;;;;25.42;12.30;;;0.90;60.60;;;;;;5058652;28;20059;-70
2021/01/12 01:33:47;;;;;;;25.23;12.73;;;0.90;60.60;;;;;;5076761;28;20526;-70
2021/01/12 01:36:13;;;;;;;23.52;11.68;;;0.90;60.50;;;;;;5058701;28;20032;-72
2021/01/12 01:38:40;;;;;;;26.60;12.80;;;0.90;60.40;;;;;;5058610;28;20037;-71
2021/01/12 01:41:08;;;;;;;22.45;11.25;;;0.90;60.30;;;;;;5058648;28;20056;-71
2021/01/12 01:43:36;;;;;;;25.50;12.52;;;0.90;60.30;;;;;;5076492;28;20548;-71
2021/01/12 01:46:03;;;;;;;22.38;11.60;;;0.90;60.40;;;;;;5058380;28;20037;-71
2021/01/12 01:48:30;;;;;;;23.70;12.07;;;0.90;60.40;;;;;;5058531;28;20029;-71
2021/01/12 01:50:56;;;;;;;24.25;12.95;;;0.90;60.40;;;;;;5076097;28;20021;-74
2021/01/12 01:53:22;;;;;;;23.45;11.43;;;0.90;60.30;;;;;;5087739;28;20056;-75
2021/01/12 01:55:52;;;;;;;25.05;12.52;;;0.90;60.20;;;;;;5096462;28;20043;-71
2021/01/12 01:58:19;;;;;;;26.35;13.05;;;0.80;60.30;;;;;;5078195;28;20040;-71
2021/01/12 02:00:46;;;;;;;22.50;12.65;;;0.80;60.40;;;;;;5078633;28;20028;-74
2021/01/12 02:03:28;;;;;;;25.95;12.07;;;0.80;60.40;;;;;;5095115;28;20472;-73
2021/01/12 02:06:06;;;;;;;25.42;12.68;;;0.80;60.30;;;;;;5096571;28;20445;-71
2021/01/12 02:08:46;;;;;;;24.95;12.57;;;0.90;60.40;;;;;;5078611;28;20039;-73
2021/01/12 02:11:15;;;;;;;22.52;11.50;;;0.80;60.30;;;;;;5094622;28;20070;-73
2021/01/12 02:13:44;;;;;;;25.48;12.20;;;0.80;60.20;;;;;;5096214;28;20070;-74
2021/01/12 02:16:10;;;;;;;23.65;11.60;;;0.80;60.30;;;;;;5094922;28;20036;-70
2021/01/12 02:18:38;;;;;;;26.23;11.95;;;0.80;60.20;;;;;;5077685;28;20122;-70
2021/01/12 02:21:05;;;;;;;25.73;12.18;;;0.80;60.00;;;;;;5094476;28;20420;-72
2021/01/12 02:23:55;;;;;;;29.60;12.38;;;0.80;60.00;;;;;;5094693;28;20032;-69
2021/01/12 02:26:22;;;;;;;25.17;11.93;;;0.80;60.00;;;;;;5077768;28;20039;-73
2021/01/12 02:28:49;;;;;;;20.45;10.93;;;0.80;60.00;;;;;;5094729;28;20168;-72
2021/01/12 02:31:18;;;;;;;26.70;13.23;;;0.80;59.90;;;;;;5095668;28;20043;-72
2021/01/12 02:33:48;;;;;;;25.52;11.88;;;0.80;60.00;;;;;;5093102;28;20071;-72
2021/01/12 02:36:19;;;;;;;25.75;12.02;;;0.70;60.00;;;;;;5095464;28;20036;-72
2021/01/12 02:38:45;;;;;;;23.05;11.95;;;0.80;60.20;;;;;;5094295;28;20043;-69
2021/01/12 02:41:13;;;;;;;25.20;12.32;;;0.70;60.00;;;;;;5095648;28;20070;-71
2021/01/12 02:43:41;;;;;;;26.83;12.48;;;0.80;59.90;;;;;;5095348;28;20411;-73
2021/01/12 02:46:09;;;;;;;27.13;13.85;;;0.70;59.90;;;;;;5094259;28;20035;-73
2021/01/12 02:48:35;;;;;;;22.85;11.98;;;0.80;60.00;;;;;;5095477;28;20408;-69
2021/01/12 02:51:01;;;;;;;26.55;13.57;;;0.70;59.80;;;;;;5095124;28;20111;-74
2021/01/12 02:53:26;;;;;;;24.52;13.00;;;0.70;59.80;;;;;;5094119;28;20462;-71
2021/01/12 02:55:52;;;;;;;25.00;12.82;;;0.70;59.80;;;;;;5094132;28;20078;-71
2021/01/12 02:58:18;;;;;;;26.85;12.75;;;0.80;59.70;;;;;;5094995;28;20422;-71
2021/01/12 03:00:45;;;;;;;25.80;12.55;;;0.70;59.70;;;;;;5093682;28;20039;-72
2021/01/12 03:03:11;;;;;;;22.98;12.02;;;0.70;59.60;;;;;;5094963;28;20042;-71
2021/01/12 03:05:37;;;;;;;23.10;11.85;;;0.70;59.40;;;;;;5095206;28;20088;-73
2021/01/12 03:08:03;;;;;;;23.45;12.55;;;0.70;59.70;;;;;;5094944;28;20032;-73
2021/01/12 03:10:29;;;;;;;24.40;12.30;;;0.60;59.50;;;;;;5095688;28;20101;-73
2021/01/12 03:12:55;;;;;;;26.38;12.88;;;0.60;59.70;;;;;;5094730;28;20450;-74
2021/01/12 03:15:21;;;;;;;25.52;13.57;;;0.60;59.70;;;;;;5093434;28;20042;-74
2021/01/12 03:17:47;;;;;;;23.50;12.13;;;0.60;59.60;;;;;;5093713;28;20047;-71
2021/01/12 03:20:13;;;;;;;24.27;12.35;;;0.60;59.70;;;;;;5095083;28;20404;-74
2021/01/12 03:22:41;;;;;;;23.90;12.52;;;0.60;59.60;;;;;;5093559;28;20032;-73
2021/01/12 03:25:08;;;;;;;24.33;12.05;;;0.60;59.70;;;;;;5094679;28;20492;-73
2021/01/12 03:27:35;;;;;;;25.55;12.93;;;0.60;59.60;;;;;;5094470;28;20043;-72
2021/01/12 03:30:03;;;;;;;26.90;13.57;;;0.60;59.60;;;;;;5094357;28;20408;-73
2021/01/12 03:32:29;;;;;;;23.95;12.07;;;0.60;59.50;;;;;;5093191;28;20036;-71
2021/01/12 03:34:55;;;;;;;27.02;13.18;;;0.60;59.30;;;;;;5094323;28;20062;-74
2021/01/12 03:37:21;;;;;;;27.02;12.65;;;0.60;59.40;;;;;;5094251;28;20070;-74
2021/01/12 03:39:47;;;;;;;26.55;13.77;;;0.60;59.40;;;;;;5094148;28;20036;-74
2021/01/12 03:42:12;;;;;;;23.70;11.95;;;0.70;59.30;;;;;;5076264;28;20058;-73
2021/01/12 03:44:38;;;;;;;25.08;12.70;;;0.60;59.20;;;;;;5092569;28;20115;-72
2021/01/12 03:47:04;;;;;;;22.73;11.82;;;0.60;59.20;;;;;;5094228;28;20427;-71
2021/01/12 03:49:30;;;;;;;26.10;13.05;;;0.60;59.30;;;;;;5093966;28;20499;-72
2021/01/12 03:51:56;;;;;;;24.75;13.00;;;0.60;59.30;;;;;;5092598;28;20140;-74
2021/01/12 03:54:22;;;;;;;25.45;12.70;;;0.60;59.20;;;;;;5093793;28;20047;-72
2021/01/12 03:56:48;;;;;;;27.27;13.40;;;0.60;59.30;;;;;;5092640;28;20399;-73
2021/01/12 03:59:14;;;;;;;26.70;13.30;;;0.50;59.40;;;;;;5094270;28;20047;-76
2021/01/12 04:01:44;;;;;;;22.40;12.18;;;0.40;59.40;;;;;;5076104;28;20401;-76
2021/01/12 04:04:11;;;;;;;26.17;12.93;;;0.50;59.40;;;;;;5075640;28;20036;-75
2021/01/12 04:06:37;;;;;;;26.85;12.73;;;0.50;59.20;;;;;;5092477;28;20082;-75
2021/01/12 04:09:04;;;;;;;23.55;11.98;;;0.50;59.20;;;;;;5093566;28;20035;-72
2021/01/12 04:11:34;;;;;;;25.58;11.93;;;0.50;59.40;;;;;;5092556;28;20097;-72
2021/01/12 04:14:01;;;;;;;25.30;12.65;;;0.50;59.40;;;;;;5092315;28;20044;-73
2021/01/12 04:16:27;;;;;;;25.00;12.73;;;0.50;59.30;;;;;;5092788;28;20050;-73
2021/01/12 04:18:53;;;;;;;26.40;12.45;;;0.50;59.30;;;;;;5093364;28;20036;-75
2021/01/12 04:21:19;;;;;;;25.70;12.23;;;0.50;59.20;;;;;;5075492;28;20089;-74
2021/01/12 04:23:45;;;;;;;24.08;11.55;;;0.50;59.20;;;;;;5092737;28;20042;-73
2021/01/12 04:26:11;;;;;;;26.80;12.45;;;0.50;59.20;;;;;;5093428;28;20119;-76
2021/01/12 04:28:37;;;;;;;26.75;13.27;;;0.50;59.20;;;;;;5093071;28;20108;-73
2021/01/12 04:31:03;;;;;;;25.42;13.02;;;0.50;59.20;;;;;;5094056;28;20039;-72
2021/01/12 04:33:28;;;;;;;24.90;12.60;;;0.50;59.10;;;;;;5093529;28;20140;-75
2021/01/12 04:35:54;;;;;;;24.95;10.95;;;0.50;59.20;;;;;;5093418;28;20400;-75
2021/01/12 04:38:20;;;;;;;23.58;12.15;;;0.50;59.20;;;;;;5091994;28;20036;-75
2021/01/12 04:40:46;;;;;;;21.88;12.32;;;0.50;59.30;;;;;;5093196;28;20040;-73
2021/01/12 04:43:13;;;;;;;23.38;12.48;;;0.50;59.20;;;;;;5091283;28;20152;-73
2021/01/12 04:45:39;;;;;;;26.13;13.00;;;0.50;59.20;;;;;;5091418;28;20081;-72
2021/01/12 04:48:06;;;;;;;25.02;12.98;;;0.40;59.30;;;;;;5091635;28;20067;-72
2021/01/12 04:50:33;;;;;;;25.25;12.93;;;0.50;59.40;;;;;;5091685;28;20395;-72
2021/01/12 04:52:59;;;;;;;24.90;12.65;;;0.50;59.30;;;;;;5079503;28;20424;-73
2021/01/12 04:55:25;;;;;;;27.75;13.73;;;0.50;59.30;;;;;;5072170;28;20565;-71
2021/01/12 04:57:51;;;;;;;23.50;12.57;;;0.50;59.30;;;;;;5072571;28;20044;-71
2021/01/12 05:00:30;;;;;;;24.88;12.93;;;0.50;59.20;;;;;;5055302;28;20400;-72
2021/01/12 05:03:02;;;;;;;24.80;12.88;;;0.50;59.30;;;;;;5054609;28;20119;-73
2021/01/12 05:05:33;;;;;;;23.98;12.57;;;0.50;59.30;;;;;;5038073;28;20408;-74
2021/01/12 05:08:10;;;;;;;32.65;14.65;;;0.50;59.20;;;;;;5072198;28;20107;-72
2021/01/12 05:10:48;;;;;;;26.05;13.00;;;0.50;59.30;;;;;;5055471;28;20245;-72
2021/01/12 05:13:18;;;;;;;25.88;12.15;;;0.40;59.30;;;;;;5039505;28;20048;-72
2021/01/12 05:15:47;;;;;;;26.38;12.80;;;0.50;59.40;;;;;;5055141;28;20068;-72
2021/01/12 05:18:17;;;;;;;27.10;12.82;;;0.60;59.20;;;;;;5072718;28;20048;-72
2021/01/12 05:20:51;;;;;;;29.45;12.77;;;0.50;59.20;;;;;;5054688;28;20052;-72
2021/01/12 05:23:23;;;;;;;29.38;13.23;;;0.60;59.00;;;;;;5054810;28;20128;-71
2021/01/12 05:25:52;;;;;;;27.40;13.25;;;0.40;59.10;;;;;;5054760;28;20037;-71
2021/01/12 05:28:18;;;;;;;27.02;12.40;;;0.40;59.20;;;;;;5072723;28;20037;-72
2021/01/12 05:30:47;;;;;;;27.25;13.02;;;0.40;59.20;;;;;;5072737;28;20055;-72
2021/01/12 05:33:20;;;;;;;30.60;14.20;;;0.40;59.30;;;;;;5037608;28;20127;-73
2021/01/12 05:35:49;;;;;;;26.55;13.75;;;0.40;59.30;;;;;;5022066;28;20039;-73
2021/01/12 05:38:29;;;;;;;28.63;13.38;;;0.40;59.30;;;;;;5053995;28;20381;-73
2021/01/12 05:41:01;;;;;;;29.58;14.75;;;0.40;59.20;;;;;;5054653;28;20041;-73
2021/01/12 05:43:38;;;;;;;28.48;13.65;;;0.40;59.10;;;;;;5073053;28;20038;-73
2021/01/12 05:46:08;;;;;;;26.63;13.40;;;0.50;59.10;;;;;;5073131;28;20068;-75
2021/01/12 05:48:36;;;;;;;27.45;14.15;;;0.50;59.10;;;;;;5054698;28;20045;-73
2021/01/12 05:51:04;;;;;;;25.67;12.63;;;0.50;58.80;;;;;;5054226;28;20067;-74
2021/01/12 05:53:45;;;;;;;28.17;13.95;;;0.50;58.90;;;;;;5068968;28;20056;-72
2021/01/12 05:56:22;;;;;;;24.88;12.93;;;0.50;58.70;;;;;;5091175;28;20496;-73
2021/01/12 05:58:50;;;;;;;26.92;13.43;;;0.50;58.80;;;;;;5092460;28;20056;-71
2021/01/12 06:01:31;;;;;;;29.60;14.27;;;0.50;58.80;;;;;;5092194;28;20523;-71
2021/01/12 06:03:58;;;;;;;24.50;13.05;;;0.40;58.70;;;;;;5091550;28;20579;-71
2021/01/12 06:06:25;;;;;;;27.50;13.50;;;0.40;58.90;;;;;;5074320;28;20457;-71
2021/01/12 06:08:52;;;;;;;27.55;14.13;;;0.40;58.90;;;;;;5077436;28;20525;-71
2021/01/12 06:11:19;;;;;;;27.13;14.23;;;0.40;58.90;;;;;;5094779;28;20126;-72
2021/01/12 06:13:56;;;;;;;24.70;13.65;;;0.40;58.80;;;;;;5094555;28;20068;-73
2021/01/12 06:16:23;;;;;;;29.13;14.65;;;0.30;58.70;;;;;;5094888;28;20040;-74
2021/01/12 06:19:12;;;;;;;31.15;15.25;;;0.30;58.90;;;;;;5096129;28;20040;-72
2021/01/12 06:21:53;;;;;;;29.20;14.60;;;0.40;58.80;;;;;;5096229;28;20066;-71
2021/01/12 06:24:38;;;;;;;29.17;14.73;;;0.40;58.90;;;;;;5096079;28;20071;-72
2021/01/12 06:27:18;;;;;;;28.67;14.10;;;0.40;58.70;;;;;;5077960;28;20058;-76
2021/01/12 06:29:46;;;;;;;31.52;14.80;;;0.40;58.80;;;;;;5077456;28;20517;-76
2021/01/12 06:32:23;;;;;;;27.08;13.93;;;0.30;58.80;;;;;;5094855;28;20048;-74
2021/01/12 06:34:52;;;;;;;24.10;13.65;;;0.30;58.90;;;;;;5094240;28;20043;-73
2021/01/12 06:37:19;;;;;;;31.80;15.88;;;0.30;58.70;;;;;;5095662;28;20093;-72
2021/01/12 06:39:50;;;;;;;28.48;14.63;;;0.30;58.70;;;;;;5094157;28;20043;-73
2021/01/12 06:42:21;;;;;;;31.33;15.68;;;0.40;58.70;;;;;;5077191;28;20126;-72
2021/01/12 06:44:49;;;;;;;29.55;14.73;;;0.40;58.60;;;;;;5095275;28;20118;-71
2021/01/12 06:47:20;;;;;;;29.55;14.68;;;0.40;58.50;;;;;;5095533;28;20089;-74
2021/01/12 06:49:46;;;;;;;30.92;14.68;;;0.40;58.40;;;;;;5094555;28;20070;-71
2021/01/12 06:52:13;;;;;;;29.25;15.88;;;0.50;58.40;;;;;;5088304;28;20057;-72
2021/01/12 06:54:40;;;;;;;28.23;14.85;;;0.50;58.30;;;;;;5040701;28;20044;-72
2021/01/12 06:57:14;;;;;;;28.83;15.02;;;0.40;58.30;;;;;;5040099;28;20532;-72
2021/01/12 06:59:52;;;;;;;28.38;14.40;;;0.50;58.30;;;;;;5074859;28;20504;-76
2021/01/12 07:02:24;;;;;;;31.35;15.60;;;0.60;58.30;;;;;;5040466;28;20167;-73
2021/01/12 07:05:11;;;;;;;28.77;15.50;;;0.60;58.10;;;;;;5056811;28;20041;-72
2021/01/12 07:07:50;;;;;;;30.42;15.27;;;0.50;58.00;;;;;;5074483;28;20032;-73
2021/01/12 07:10:18;;;;;;;28.80;15.15;;;0.50;58.20;;;;;;5040630;28;20432;-70
2021/01/12 07:12:45;;;;;;;32.90;14.82;;;0.50;58.30;;;;;;5056598;28;20073;-71
2021/01/12 07:15:14;;;;;;;27.30;14.63;;;0.60;58.20;;;;;;5056584;28;20412;-74
2021/01/12 07:17:48;;;;;;;28.77;14.15;;;0.60;58.10;;;;;;5056466;28;20050;-72
2021/01/12 07:20:19;;;;;;;29.83;15.50;;;0.60;57.90;;;;;;5073890;28;20036;-71
2021/01/12 07:23:01;;;;;;;27.30;13.93;;;0.50;58.00;;;;;;5039940;28;20123;-71
2021/01/12 07:25:31;;;;;;;27.48;14.45;;;0.50;58.10;;;;;;5056902;28;20052;-72
2021/01/12 07:28:03;;;;;;;28.15;14.70;;;0.50;58.20;;;;;;5056593;28;20131;-71
2021/01/12 07:30:30;;;;;;;29.13;15.13;;;0.50;58.10;;;;;;5074417;28;20040;-72
2021/01/12 07:32:58;;;;;;;29.73;15.32;;;0.50;58.20;;;;;;5073889;28;20519;-72
2021/01/12 07:35:26;;;;;;;28.30;14.10;;;0.50;58.00;;;;;;5056083;28;20053;-72
2021/01/12 07:37:52;;;;;;;27.05;13.80;;;0.50;58.00;;;;;;5039731;28;20476;-72
2021/01/12 07:40:19;;;;;;;28.67;15.20;;;0.50;58.10;;;;;;5039776;28;20032;-71
2021/01/12 07:42:55;;;;;;;29.23;15.95;;;0.50;58.10;;;;;;5074175;28;20071;-72
2021/01/12 07:45:25;;;;;;;32.17;15.35;;;0.60;58.00;;;;;;5056421;28;20488;-72
2021/01/12 07:47:53;;;;;;;27.70;15.45;;;0.60;58.10;;;;;;5039415;28;20041;-70
2021/01/12 07:50:21;;;;;;;28.98;14.48;;;0.60;58.00;;;;;;5074089;28;20119;-72
2021/01/12 07:52:47;;;;;;;30.65;15.68;;;0.70;57.90;;;;;;5074305;28;20061;-72
2021/01/12 07:55:13;;;;;;;31.63;15.38;;;0.70;57.80;;;;;;5073563;28;20140;-73
2021/01/12 07:57:40;;;;;;;26.77;15.32;;;0.70;57.80;;;;;;5073434;28;20385;-74
2021/01/12 08:00:11;;;;;;;32.63;14.88;;;0.60;57.70;;;;;;5073644;28;20028;-71
2021/01/12 08:02:43;;;;;;;30.02;15.75;;;0.60;57.60;;;;;;5073963;28;20036;-76
2021/01/12 08:05:12;;;;;;;31.25;15.63;;;0.70;57.70;;;;;;5039510;28;20036;-73
2021/01/12 08:07:38;;;;;;;33.08;15.98;;;0.70;57.70;;;;;;5055889;28;20484;-73
2021/01/12 08:10:06;;;;;;;31.13;14.65;;;0.70;57.50;;;;;;5055744;28;20042;-70
2021/01/12 08:12:32;;;;;;;31.63;16.35;;;0.60;57.60;;;;;;5055487;28;20584;-72
2021/01/12 08:15:14;;;;;;;34.75;16.45;;;0.60;57.70;;;;;;5038974;28;20040;-72
2021/01/12 08:17:50;;;;;;;30.73;15.52;;;0.60;57.60;;;;;;5056007;28;20124;-73
2021/01/12 08:20:17;;;;;;;29.98;15.88;;;0.50;57.70;;;;;;5055735;28;20047;-73
2021/01/12 08:22:54;;;;;;;28.77;14.85;;;0.40;57.50;;;;;;5038780;28;20127;-73
2021/01/12 08:25:22;;;;;;;27.05;13.85;;;0.40;57.60;;;;;;5039167;28;20503;-76
2021/01/12 08:27:53;;;;;;;26.90;13.70;;;0.40;57.30;;;;;;5055533;28;20064;-74
2021/01/12 08:30:21;;;;;;;28.70;14.25;;;0.40;57.30;;;;;;5054573;28;20040;-74
2021/01/12 08:33:08;;;;;;;26.60;13.60;;;0.30;57.30;;;;;;5055197;28;20036;-74
2021/01/12 08:35:41;;;;;;;29.27;15.00;;;0.30;57.10;;;;;;5073383;28;20037;-73
2021/01/12 08:38:08;;;;;;;33.35;16.05;;;0.30;57.30;;;;;;5073723;28;20583;-76
2021/01/12 08:40:35;;;;;;;30.60;15.10;;;0.40;57.80;;;;;;5072970;28;20040;-77
2021/01/12 08:43:01;;;;;;;32.28;14.50;;;0.50;59.10;;;;;;5055368;28;20040;-75
2021/01/12 08:45:33;;;;;;;30.02;15.85;;;0.50;60.50;;;;;;5054803;28;20046;-75
2021/01/12 08:48:10;;;;;;;28.75;14.63;;;0.50;61.60;;;;;;5038402;28;20040;-75
2021/01/12 08:50:37;;;;;;;32.10;15.50;;;0.60;62.40;;;;;;5055663;28;20123;-71
2021/01/12 08:53:03;;;;;;;28.13;14.20;;;0.60;63.10;;;;;;5072583;28;20098;-72
2021/01/12 08:55:29;;;;;;;29.40;15.20;;;0.60;63.80;;;;;;5072717;28;20511;-72
2021/01/12 08:58:01;;;;;;;31.48;15.60;;;0.70;64.10;;;;;;5073224;28;20061;-72
2021/01/12 09:00:35;;;;;;;29.67;15.88;;;0.70;64.50;;;;;;5054738;28;20049;-73
2021/01/12 09:03:02;;;;;;;33.90;16.02;;;0.80;64.60;;;;;;5054996;28;20405;-72
2021/01/12 09:05:31;;;;;;;28.85;16.38;;;0.80;64.80;;;;;;5073022;28;20519;-72
2021/01/12 09:08:06;;;;;;;32.78;16.05;;;0.80;65.10;;;;;;5072660;28;20507;-72
2021/01/12 09:10:33;;;;;;;35.03;16.67;;;0.80;65.30;;;;;;5072638;28;20067;-74
2021/01/12 09:13:00;;;;;;;31.63;16.17;;;0.80;65.50;;;;;;5072555;28;20040;-72
2021/01/12 09:15:28;;;;;;;26.33;14.45;;;0.90;65.80;;;;;;5054597;28;20045;-73
2021/01/12 09:18:23;;;;;;;30.65;15.38;;;0.90;66.10;;;;;;5055101;28;20040;-72
2021/01/12 09:21:00;;;;;;;31.25;16.15;;;0.90;66.40;;;;;;5072629;28;20549;-73
2021/01/12 09:23:27;;;;;;;28.70;15.68;;;0.90;66.70;;;;;;5037863;28;20604;-73
2021/01/12 09:26:00;;;;;;;28.48;15.15;;;0.90;67.00;;;;;;5054781;28;20057;-72
2021/01/12 09:28:30;;;;;;;32.20;16.17;;;0.90;67.30;;;;;;5056005;28;20512;-74
2021/01/12 09:31:10;;;;;;;29.77;16.15;;;0.90;66.50;;;;;;5038516;28;20496;-74
2021/01/12 09:33:38;;;;;;;34.22;17.17;;;0.90;65.40;;;;;;5037871;28;20032;-75
2021/01/12 09:36:11;;;;;;;31.85;16.70;;;0.90;64.60;;;;;;5054559;28;20036;-74
2021/01/12 09:38:40;;;;;;;31.67;17.60;;;0.90;63.70;;;;;;5054526;28;20083;-74
2021/01/12 09:41:07;;;;;;;31.40;16.77;;;0.80;63.80;;;;;;5054465;28;20071;-77
2021/01/12 09:43:34;;;;;;;32.92;16.83;;;0.80;62.70;;;;;;5057678;28;20035;-76
2021/01/12 09:46:00;;;;;;;34.40;17.58;;;0.80;62.10;;;;;;5041522;28;20130;-73
2021/01/12 09:48:26;;;;;;;28.10;15.85;;;0.80;62.00;;;;;;5041356;28;20135;-75
2021/01/12 09:50:53;;;;;;;31.77;16.13;;;0.70;61.70;;;;;;5076229;28;20497;-74
2021/01/12 09:53:19;;;;;;;31.98;17.70;;;0.70;61.40;;;;;;5076412;28;20060;-76
2021/01/12 09:55:46;;;;;;;31.83;17.40;;;0.70;61.10;;;;;;5058583;28;20032;-74
2021/01/12 09:58:12;;;;;;;31.55;16.92;;;0.70;60.90;;;;;;5075934;28;20574;-74
2021/01/12 10:00:38;;;;;;;30.63;16.10;;;0.70;60.60;;;;;;5075906;28;20066;-76
2021/01/12 10:03:05;;;;;;;28.25;15.55;;;0.60;60.50;;;;;;5075786;28;20415;-73
2021/01/12 10:05:31;;;;;;;32.55;16.88;;;0.60;60.50;;;;;;5075931;28;20066;-75
2021/01/12 10:07:56;;;;;;;33.47;17.38;;;0.70;60.20;;;;;;5075687;28;20129;-72
2021/01/12 10:10:22;;;;;;;30.23;16.08;;;0.60;60.10;;;;;;5057958;28;20067;-73
2021/01/12 10:12:48;;;;;;;30.60;15.65;;;0.60;59.90;;;;;;5075616;28;20127;-74
2021/01/12 10:15:15;;;;;;;28.20;15.63;;;0.60;60.00;;;;;;5075467;28;20512;-75
2021/01/12 10:17:40;;;;;;;31.17;16.55;;;0.60;59.90;;;;;;5075966;28;20032;-72
2021/01/12 10:20:07;;;;;;;32.22;15.85;;;0.60;60.00;;;;;;5057662;28;20127;-72
2021/01/12 10:22:32;;;;;;;30.33;15.35;;;0.50;59.60;;;;;;5057639;28;20385;-71
2021/01/12 10:24:59;;;;;;;31.88;15.45;;;0.60;59.50;;;;;;5075379;28;20123;-73
2021/01/12 10:27:32;;;;;;;31.73;15.90;;;0.50;59.60;;;;;;5075233;28;20047;-72
2021/01/12 10:29:58;;;;;;;30.90;15.30;;;0.50;59.50;;;;;;5075556;28;20040;-73
2021/01/12 10:32:25;;;;;;;27.67;15.35;;;0.50;59.50;;;;;;5075181;28;20134;-72
2021/01/12 10:34:51;;;;;;;30.50;15.82;;;0.50;59.30;;;;;;5057020;28;20048;-72
2021/01/12 10:37:17;;;;;;;29.40;15.45;;;0.50;59.40;;;;;;5075231;28;20052;-71
2021/01/12 10:39:43;;;;;;;32.90;16.27;;;0.40;59.10;;;;;;5075271;28;20040;-72
2021/01/12 10:42:10;;;;;;;31.13;14.57;;;0.40;59.30;;;;;;5075193;28;20037;-75
2021/01/12 10:44:35;;;;;;;30.55;16.63;;;0.50;59.40;;;;;;5057347;28;20045;-72
2021/01/12 10:47:01;;;;;;;31.75;16.02;;;0.40;59.20;;;;;;5074910;28;20094;-73
2021/01/12 10:49:27;;;;;;;33.20;15.85;;;0.40;59.20;;;;;;5057265;28;20039;-71
2021/01/12 10:52:03;;;;;;;30.10;15.60;;;0.40;59.20;;;;;;5075008;28;20063;-73
2021/01/12 10:54:29;;;;;;;30.08;15.75;;;0.40;59.30;;;;;;5039553;28;20075;-73
2021/01/12 10:56:56;;;;;;;28.23;15.40;;;0.40;59.10;;;;;;5074768;28;20119;-74
2021/01/12 10:59:23;;;;;;;35.22;17.15;;;0.40;59.00;;;;;;5040051;28;20124;-74
2021/01/12 11:02:05;;;;;;;32.60;16.77;;;0.40;58.70;;;;;;5074768;28;20040;-75
2021/01/12 11:04:31;;;;;;;32.13;15.68;;;0.40;58.60;;;;;;5057332;28;20607;-73
2021/01/12 11:06:58;;;;;;;31.63;15.40;;;0.40;58.50;;;;;;5074683;28;20074;-75
2021/01/12 11:09:25;;;;;;;32.53;16.17;;;0.40;58.70;;;;;;5056903;28;20044;-72
2021/01/12 11:11:51;;;;;;;32.53;16.30;;;0.30;58.70;;;;;;5056503;28;20041;-72
2021/01/12 11:14:19;;;;;;;34.05;17.45;;;0.30;58.60;;;;;;5039788;28;20047;-73
2021/01/12 11:16:46;;;;;;;32.17;17.15;;;0.30;58.80;;;;;;5040018;28;20404;-73
2021/01/12 11:19:13;;;;;;;28.63;16.05;;;0.30;58.80;;;;;;5074337;28;20127;-74
2021/01/12 11:21:50;;;;;;;26.77;15.40;;;0.30;58.90;;;;;;5040008;28;20051;-72
2021/01/12 11:24:27;;;;;;;33.80;16.00;;;0.30;59.00;;;;;;5074303;28;20227;-73
2021/01/12 11:27:03;;;;;;;30.30;15.70;;;0.30;59.00;;;;;;5056397;28;20202;-73
2021/01/12 11:29:29;;;;;;;31.65;16.73;;;0.30;59.00;;;;;;5057052;28;20032;-72
2021/01/12 11:31:59;;;;;;;30.60;15.13;;;0.20;59.00;;;;;;5040134;28;20527;-72
2021/01/12 11:34:26;;;;;;;28.63;16.48;;;0.30;59.00;;;;;;5056131;28;20459;-74
2021/01/12 11:36:53;;;;;;;27.98;15.90;;;0.30;59.00;;;;;;5039776;28;20396;-73
2021/01/12 11:39:20;;;;;;;31.25;15.88;;;0.30;59.00;;;;;;5039415;28;20396;-73
2021/01/12 11:41:57;;;;;;;32.53;16.23;;;0.20;59.10;;;;;;5074081;28;20040;-74
2021/01/12 11:44:24;;;;;;;34.80;16.77;;;0.20;59.10;;;;;;5056215;28;20382;-73
2021/01/12 11:46:50;;;;;;;31.30;17.23;;;0.20;59.10;;;;;;5074239;28;20036;-75
2021/01/12 11:49:17;;;;;;;33.08;16.30;;;0.20;59.30;;;;;;5039285;28;20024;-77
2021/01/12 11:51:47;;;;;;;32.05;16.85;;;0.20;59.20;;;;;;5073735;28;20032;-73
2021/01/12 11:54:15;;;;;;;35.17;17.55;;;0.20;59.00;;;;;;5073821;28;20032;-74
2021/01/12 11:56:42;;;;;;;29.42;16.85;;;0.10;59.20;;;;;;5039376;28;20557;-74
2021/01/12 11:59:08;;;;;;;33.03;16.98;;;0.20;59.30;;;;;;5039300;28;20071;-73
2021/01/12 12:01:51;;;;;;;36.38;18.88;;;0.20;58.90;;;;;;5073486;28;20039;-71
2021/01/12 12:04:17;;;;;;;37.08;17.50;;;0.10;59.00;;;;;;5073501;28;20047;-73
2021/01/12 12:06:48;;;;;;;32.40;17.50;;;0.10;59.10;;;;;;5055631;28;20132;-75
2021/01/12 12:09:14;;;;;;;36.53;18.42;;;0.10;59.20;;;;;;5055659;28;20032;-76
2021/01/12 12:11:41;;;;;;;38.67;19.27;;;0.10;59.00;;;;;;5073647;28;20064;-75
2021/01/12 12:14:08;;;;;;;32.13;16.25;;;0.10;59.10;;;;;;5055441;28;20082;-75
2021/01/12 12:16:35;;;;;;;33.45;17.95;;;0.10;59.30;;;;;;5039040;28;20413;-73
2021/01/12 12:19:01;;;;;;;35.65;18.60;;;0.10;59.30;;;;;;5073628;28;20481;-75
2021/01/12 12:21:29;;;;;;;34.78;18.13;;;0.00;59.30;;;;;;5055350;28;20492;-72
2021/01/12 12:23:55;;;;;;;32.35;17.13;;;0.00;59.30;;;;;;5073679;28;20043;-74
2021/01/12 12:26:21;;;;;;;32.33;17.70;;;0.00;59.50;;;;;;5038982;28;20036;-79
2021/01/12 12:28:47;;;;;;;32.42;17.90;;;0.10;59.40;;;;;;5055364;28;20041;-73
2021/01/12 12:31:14;;;;;;;37.85;17.98;;;0.00;59.30;;;;;;5055450;28;20046;-73
2021/01/12 12:33:41;;;;;;;38.20;18.75;;;0.00;59.30;;;;;;5038692;28;20190;-74
2021/01/12 12:36:10;;;;;;;32.88;17.00;;;0.00;59.30;;;;;;5072984;28;20102;-73
2021/01/12 12:38:40;;;;;;;37.78;18.95;;;0.10;59.20;;;;;;5038509;28;20032;-72
2021/01/12 12:41:11;;;;;;;31.40;16.63;;;0.00;59.20;;;;;;5054991;28;20504;-74
2021/01/12 12:43:37;;;;;;;31.35;17.17;;;0.00;59.10;;;;;;5055126;28;20055;-74